Scroll down
FLIGHT INFORMATION
Sky Gates Airlines

SAY725

At Arrival Gate

UUEE
 EDDS
DATE: 2020-07-25
GATE:  -
GATE DEPARTURE: 14:37
TAKEOFF: 14:41
DATE: 2020-07-25
GATE:  -
LANDING: 17:29
GATE ARRIVAL: 17:38
FLIGHT DATA
Crew: 
Speed: 
922 kph
Altitude: 
11,584 m
Stage Length: 
2,061.2 km
Block Time: 
3 hrs
Flight Time: 
2.8 hrs
Fuel Used: 
28,300 kg
Cleared Route: UUEE BG TU SUPEK TEGLU LEGSI BENIM RAMBE LAFAT UPASI VABER SUW KULEK MAGAN IDEXU GOVEN BUKIG KOBUS BEBKU PIKIB ABKIS NOKSI PEROX NURGO URONA UNAVI KULOK ERETO ANELA KEGOS AMOSA ODEGU DKB GEBNO EDDS
TRACK DATA
50,000 ft 1,000 kts
AIRCRAFT INFO AND CUMULATIVE STATS
Aircraft Type: 
B744F
Registration: 
SELCAL: 
MSN/LN: 
32571 / 1271
Operator: 
Total Flights: 
6
Total Block Time: 
14.2 hrs
Total Flight Time: 
13 hrs
Total Fuel Time: 
135,338 kg
DATALINK LOG | Newest first | Current as of: 2021-05-09 17:02:28
LABEL SEQUENCE CONTENT Dn/Up
QD403417:38 56.9▼ Dn
QC312517:29▼ Dn
2U1012EDDS 251520Z 05008KT 360V070 CAVOK 26/11 Q1013 NOSIG▲ Up
2S1206EDDS▼ Dn
2U3114EDDS 251520Z 05008KT 360V070 CAVOK 26/11 Q1013 NOSIG▲ Up
2S3332EDDS▼ Dn
GA3135ADVANCED GATE ASSIGNMENTS NOT YET AVAILABLE AT THIS AIRPORT▲ Up
GR3135EDDS 17:24 MAAS YP/UM WCHR/S/C HI-VAL NO DIPL/VIP NO▼ Dn
5R2827IDEXU 16:25z FL380 GOVEN 16:37z BUKIG M0.83 34.4 -59 269/25 EDDS 17:24z▼ Dn
QB434714:41▼ Dn
QA394314:37 119.3▼ Dn
A30823CLEARED TO EDDS VIA BG3J BG L29 SUW L735 GOVEN P31 KOBUS Z220 BEBKU Z36 PIKIB Z715 ERETO UZ160 ANELA UN869 DKB Z818 GEBNO. SQUAWK .▲ Up
B30813UUEE EDDS SAY725 VPBCI ▼ Dn
2U0524UUEE 251430Z 23004MPS CAVOK 21/08 Q1017 R24L/CLRD62 NOSIG▲ Up
2S0712UUEE▼ Dn
Q00510[LINK ACK]▲ Up
Q00510[LINK TEST]▼ Dn


AIRCRAFT HISTORY
FLIGHT DATE FLIGHT NO. ORIGIN DESTINATION CLEARED ROUTE BLOCK TIME FLIGHT TIME FUEL USED PILOT
2020-08-15SAY815EDDS ENGM EDDS OKIBA ROLSO RIMKI LOHRE ARNIX FUL MASEK KEMAD PIBUL MEGAR SABAK XENTA REGMA LUNIP ENGM2 hrs1.9 hrs45,149 lbMarc Ehnle
2020-07-25SAY725UUEE EDDS UUEE BG TU SUPEK TEGLU LEGSI BENIM RAMBE LAFAT UPASI VABER SUW KULEK MAGAN IDEXU GOVEN BUKIG KOBUS BEBKU PIKIB ABKIS NOKSI PEROX NURGO URONA UNAVI KULOK ERETO ANELA KEGOS AMOSA ODEGU DKB GEBNO EDDS3 hrs2.8 hrs62,392 lbMarc Ehnle
2020-03-14SAY306LIRF UUEE LIRF TIBER INTUD GOTMO IBENI IPKIS KOPRY SUNOR DEMOP PODAN ODRAP USTIL AMIRI PNK OGARA TAZIP DELON NASKA REKTA DEDOK SODKO ABKOM PASUD MOSON KOMOG RUBAG GUBON FK UUEE3.1 hrs2.8 hrs74,216 lbRobert S. Randazzo
2019-03-18SAY317ESSA LIRF ESSA NOSLI TONSA ABAMA MOKNI NEMBA DEKIK ETPIG ELVIX BIKRU RAKIT MAREM PEMEL RUDAP BARIX BAMTA DEGIN DOSEL TULSI BERAS MIMVI LIZUM LIKDA VESAL GAVRA RITEB LIRF3.3 hrs3 hrs60,302 lbAaron Buchanan
2019-03-13SAY312EFHK ESSA EFHK ADIVO PEPIG POGOK RUNGA XILAN ESSA1 hrs0.8 hrs18,577 lbAaron Buchanan
2019-03-03SAY302UUDD EFHK UUDD LO GOTMA ARSEP UM AR BELAG OLIDI GAPSA ROMEL KUDIM GUBIT PIKAM ATBUR ORTOK NOTAR SUMIM ULKOX BIRSI LEMLA GEPTA INTOR EFHK1.8 hrs1.7 hrs37,734 lbAaron Buchanan